sensor_id;sensor_type;location;lat;lon;timestamp;pressure;altitude;pressure_sealevel;temperature;humidity
64343;BME280;50675;53.530;-6.312;2022-07-23T00:00:47;101054.88;;;17.76;55.05
64343;BME280;50675;53.530;-6.312;2022-07-23T00:03:25;101039.03;;;17.73;55.27
64343;BME280;50675;53.530;-6.312;2022-07-23T00:06:00;101033.03;;;17.71;55.41
64343;BME280;50675;53.530;-6.312;2022-07-23T00:08:32;101031.38;;;17.75;55.24
64343;BME280;50675;53.530;-6.312;2022-07-23T00:11:03;101031.41;;;17.70;55.30
64343;BME280;50675;53.530;-6.312;2022-07-23T00:13:49;101043.59;;;17.82;55.40
64343;BME280;50675;53.530;-6.312;2022-07-23T00:16:17;101024.56;;;17.72;55.55
64343;BME280;50675;53.530;-6.312;2022-07-23T00:22:33;101024.03;;;17.70;55.61
64343;BME280;50675;53.530;-6.312;2022-07-23T00:25:58;101020.19;;;17.71;55.67
64343;BME280;50675;53.530;-6.312;2022-07-23T00:28:50;101030.09;;;17.67;55.78
64343;BME280;50675;53.530;-6.312;2022-07-23T00:31:27;101023.53;;;17.63;55.86
64343;BME280;50675;53.530;-6.312;2022-07-23T00:34:01;101020.00;;;17.63;55.75
64343;BME280;50675;53.530;-6.312;2022-07-23T00:36:55;101019.19;;;17.62;55.58
64343;BME280;50675;53.530;-6.312;2022-07-23T00:46:12;101009.09;;;17.63;56.07
64343;BME280;50675;53.530;-6.312;2022-07-23T00:49:21;100998.16;;;17.63;56.26
64343;BME280;50675;53.530;-6.312;2022-07-23T00:51:51;101007.91;;;17.69;56.10
64343;BME280;50675;53.530;-6.312;2022-07-23T00:54:25;101002.22;;;17.65;56.32
64343;BME280;50675;53.530;-6.312;2022-07-23T00:56:52;100992.34;;;17.69;56.43
64343;BME280;50675;53.530;-6.312;2022-07-23T00:59:45;101014.06;;;17.84;56.40
64343;BME280;50675;53.530;-6.312;2022-07-23T01:02:43;100992.56;;;17.73;56.47
64343;BME280;50675;53.530;-6.312;2022-07-23T01:05:17;100995.25;;;17.78;56.51
64343;BME280;50675;53.530;-6.312;2022-07-23T01:08:01;100995.03;;;17.74;56.72
64343;BME280;50675;53.530;-6.312;2022-07-23T01:11:11;100990.09;;;17.76;56.77
64343;BME280;50675;53.530;-6.312;2022-07-23T01:13:49;100985.97;;;17.79;56.75
64343;BME280;50675;53.530;-6.312;2022-07-23T01:16:28;100999.53;;;17.89;56.96
64343;BME280;50675;53.530;-6.312;2022-07-23T01:18:57;100987.00;;;17.83;56.91
64343;BME280;50675;53.530;-6.312;2022-07-23T01:21:28;100997.63;;;17.89;56.86
64343;BME280;50675;53.530;-6.312;2022-07-23T01:24:07;100987.56;;;17.85;57.00
64343;BME280;50675;53.530;-6.312;2022-07-23T01:26:33;100976.63;;;17.85;57.11
64343;BME280;50675;53.530;-6.312;2022-07-23T01:28:59;100977.94;;;17.87;57.25
64343;BME280;50675;53.530;-6.312;2022-07-23T01:31:28;100964.38;;;17.77;57.04
64343;BME280;50675;53.530;-6.312;2022-07-23T01:34:13;100969.81;;;17.82;57.08
64343;BME280;50675;53.530;-6.312;2022-07-23T01:36:55;100961.38;;;17.79;57.42
64343;BME280;50675;53.530;-6.312;2022-07-23T01:39:27;100971.16;;;17.85;57.46
64343;BME280;50675;53.530;-6.312;2022-07-23T01:41:55;100966.25;;;17.82;57.67
64343;BME280;50675;53.530;-6.312;2022-07-23T01:44:24;100963.00;;;17.80;57.69
64343;BME280;50675;53.530;-6.312;2022-07-23T01:46:51;100975.22;;;17.87;57.71
64343;BME280;50675;53.530;-6.312;2022-07-23T01:49:17;100953.19;;;17.79;57.53
64343;BME280;50675;53.530;-6.312;2022-07-23T01:51:45;100950.69;;;17.82;57.75
64343;BME280;50675;53.530;-6.312;2022-07-23T01:54:30;100937.06;;;17.77;57.88
64343;BME280;50675;53.530;-6.312;2022-07-23T01:57:11;100933.00;;;17.75;58.24
64343;BME280;50675;53.530;-6.312;2022-07-23T01:59:54;100930.00;;;17.76;57.97
64343;BME280;50675;53.530;-6.312;2022-07-23T02:02:22;100949.41;;;17.99;58.19
64343;BME280;50675;53.530;-6.312;2022-07-23T02:04:49;100927.50;;;17.80;58.22
64343;BME280;50675;53.530;-6.312;2022-07-23T02:07:38;100922.31;;;17.78;58.03
64343;BME280;50675;53.530;-6.312;2022-07-23T02:10:48;100920.38;;;17.79;58.12
64343;BME280;50675;53.530;-6.312;2022-07-23T02:13:40;100913.53;;;17.81;58.33
64343;BME280;50675;53.530;-6.312;2022-07-23T02:16:10;100925.22;;;17.87;58.24
64343;BME280;50675;53.530;-6.312;2022-07-23T02:18:39;100918.41;;;17.84;58.69
64343;BME280;50675;53.530;-6.312;2022-07-23T02:21:05;100913.78;;;17.85;58.51
64343;BME280;50675;53.530;-6.312;2022-07-23T02:23:31;100911.53;;;17.87;58.43
64343;BME280;50675;53.530;-6.312;2022-07-23T02:25:57;100912.69;;;17.86;58.82
64343;BME280;50675;53.530;-6.312;2022-07-23T02:31:20;100899.00;;;17.86;58.68
64343;BME280;50675;53.530;-6.312;2022-07-23T02:33:54;100886.66;;;17.88;58.94
64343;BME280;50675;53.530;-6.312;2022-07-23T02:36:21;100903.28;;;17.92;59.11
64343;BME280;50675;53.530;-6.312;2022-07-23T02:38:47;100901.09;;;17.94;59.04
64343;BME280;50675;53.530;-6.312;2022-07-23T02:41:13;100892.63;;;17.96;59.33
64343;BME280;50675;53.530;-6.312;2022-07-23T02:43:39;100881.91;;;17.99;59.07
64343;BME280;50675;53.530;-6.312;2022-07-23T02:46:06;100875.91;;;17.97;59.19
64343;BME280;50675;53.530;-6.312;2022-07-23T02:48:37;100870.56;;;17.87;59.42
64343;BME280;50675;53.530;-6.312;2022-07-23T02:51:03;100884.91;;;17.98;59.41
64343;BME280;50675;53.530;-6.312;2022-07-23T02:53:32;100889.22;;;18.04;59.35
64343;BME280;50675;53.530;-6.312;2022-07-23T02:55:58;100889.28;;;17.99;59.66
64343;BME280;50675;53.530;-6.312;2022-07-23T02:58:24;100879.69;;;18.01;59.83
64343;BME280;50675;53.530;-6.312;2022-07-23T03:00:53;100884.63;;;17.99;59.58
64343;BME280;50675;53.530;-6.312;2022-07-23T03:03:18;100892.19;;;18.07;59.82
64343;BME280;50675;53.530;-6.312;2022-07-23T03:05:49;100871.31;;;17.92;59.70
64343;BME280;50675;53.530;-6.312;2022-07-23T03:08:38;100877.25;;;18.00;59.78
64343;BME280;50675;53.530;-6.312;2022-07-23T03:11:22;100870.22;;;17.93;59.85
64343;BME280;50675;53.530;-6.312;2022-07-23T03:14:04;100871.31;;;17.92;60.19
64343;BME280;50675;53.530;-6.312;2022-07-23T03:16:42;100857.91;;;17.96;60.36
64343;BME280;50675;53.530;-6.312;2022-07-23T03:19:37;100867.34;;;18.04;60.40
64343;BME280;50675;53.530;-6.312;2022-07-23T03:22:41;100861.66;;;18.00;60.09
64343;BME280;50675;53.530;-6.312;2022-07-23T03:25:38;100854.78;;;18.03;60.30
64343;BME280;50675;53.530;-6.312;2022-07-23T03:28:38;100845.03;;;17.97;60.55
64343;BME280;50675;53.530;-6.312;2022-07-23T03:48:31;100819.03;;;17.99;61.18
64343;BME280;50675;53.530;-6.312;2022-07-23T03:51:18;100813.63;;;17.94;60.93
64343;BME280;50675;53.530;-6.312;2022-07-23T03:53:51;100812.41;;;18.05;61.20
64343;BME280;50675;53.530;-6.312;2022-07-23T03:56:20;100808.38;;;17.98;61.21
64343;BME280;50675;53.530;-6.312;2022-07-23T03:58:46;100807.44;;;18.07;61.43
64343;BME280;50675;53.530;-6.312;2022-07-23T04:01:12;100799.25;;;18.07;61.45
64343;BME280;50675;53.530;-6.312;2022-07-23T04:03:38;100810.09;;;18.12;61.29
64343;BME280;50675;53.530;-6.312;2022-07-23T04:06:04;100803.53;;;18.13;61.48
64343;BME280;50675;53.530;-6.312;2022-07-23T04:08:30;100796.66;;;18.16;61.33
64343;BME280;50675;53.530;-6.312;2022-07-23T04:10:56;100799.16;;;18.12;61.37
64343;BME280;50675;53.530;-6.312;2022-07-23T04:13:21;100793.41;;;18.14;61.73
64343;BME280;50675;53.530;-6.312;2022-07-23T04:15:47;100787.94;;;18.14;61.51
64343;BME280;50675;53.530;-6.312;2022-07-23T04:18:13;100796.28;;;18.22;61.61
64343;BME280;50675;53.530;-6.312;2022-07-23T04:20:39;100798.97;;;18.27;61.63
64343;BME280;50675;53.530;-6.312;2022-07-23T04:23:05;100781.88;;;18.17;61.79
64343;BME280;50675;53.530;-6.312;2022-07-23T04:25:35;100774.22;;;18.19;62.01
64343;BME280;50675;53.530;-6.312;2022-07-23T04:28:03;100773.09;;;18.20;61.94
64343;BME280;50675;53.530;-6.312;2022-07-23T04:30:32;100779.59;;;18.24;61.99
64343;BME280;50675;53.530;-6.312;2022-07-23T04:33:06;100785.06;;;18.24;61.90
64343;BME280;50675;53.530;-6.312;2022-07-23T04:35:36;100793.41;;;18.32;62.14
64343;BME280;50675;53.530;-6.312;2022-07-23T04:38:02;100788.53;;;18.29;62.11
64343;BME280;50675;53.530;-6.312;2022-07-23T04:40:31;100767.25;;;18.26;62.30
64343;BME280;50675;53.530;-6.312;2022-07-23T04:42:57;100763.91;;;18.29;62.08
64343;BME280;50675;53.530;-6.312;2022-07-23T04:45:23;100754.69;;;18.25;62.34
64343;BME280;50675;53.530;-6.312;2022-07-23T04:47:50;100755.72;;;18.29;62.19
64343;BME280;50675;53.530;-6.312;2022-07-23T04:50:16;100759.56;;;18.28;62.48
64343;BME280;50675;53.530;-6.312;2022-07-23T04:52:50;100767.09;;;18.36;62.35
64343;BME280;50675;53.530;-6.312;2022-07-23T04:55:16;100752.41;;;18.32;62.38
64343;BME280;50675;53.530;-6.312;2022-07-23T05:03:31;100762.44;;;18.37;62.49
64343;BME280;50675;53.530;-6.312;2022-07-23T05:05:57;100768.41;;;18.39;62.54
64343;BME280;50675;53.530;-6.312;2022-07-23T05:08:23;100775.50;;;18.40;62.44
64343;BME280;50675;53.530;-6.312;2022-07-23T05:10:49;100768.72;;;18.38;62.86
64343;BME280;50675;53.530;-6.312;2022-07-23T05:13:21;100771.97;;;18.40;63.07
64343;BME280;50675;53.530;-6.312;2022-07-23T05:16:02;100765.19;;;18.37;63.14
64343;BME280;50675;53.530;-6.312;2022-07-23T05:18:50;100769.75;;;18.42;63.23
64343;BME280;50675;53.530;-6.312;2022-07-23T05:21:19;100781.31;;;18.57;62.78
64343;BME280;50675;53.530;-6.312;2022-07-23T05:23:46;100760.38;;;18.48;63.07
64343;BME280;50675;53.530;-6.312;2022-07-23T05:26:11;100752.25;;;18.43;63.18
64343;BME280;50675;53.530;-6.312;2022-07-23T05:28:37;100751.13;;;18.44;63.23
64343;BME280;50675;53.530;-6.312;2022-07-23T05:31:03;100753.88;;;18.44;63.24
64343;BME280;50675;53.530;-6.312;2022-07-23T05:33:34;100737.00;;;18.36;63.19
64343;BME280;50675;53.530;-6.312;2022-07-23T05:36:03;100746.09;;;18.51;63.48
64343;BME280;50675;53.530;-6.312;2022-07-23T05:38:30;100726.59;;;18.39;63.57
64343;BME280;50675;53.530;-6.312;2022-07-23T05:40:56;100747.13;;;18.55;63.64
64343;BME280;50675;53.530;-6.312;2022-07-23T05:43:22;100740.19;;;18.44;63.66
64343;BME280;50675;53.530;-6.312;2022-07-23T05:45:48;100728.13;;;18.45;63.94
64343;BME280;50675;53.530;-6.312;2022-07-23T05:48:14;100734.28;;;18.55;63.88
64343;BME280;50675;53.530;-6.312;2022-07-23T05:50:40;100728.03;;;18.50;63.85
64343;BME280;50675;53.530;-6.312;2022-07-23T05:53:08;100744.03;;;18.61;63.80
64343;BME280;50675;53.530;-6.312;2022-07-23T05:55:37;100717.41;;;18.48;64.11
64343;BME280;50675;53.530;-6.312;2022-07-23T05:58:05;100722.44;;;18.60;64.14
64343;BME280;50675;53.530;-6.312;2022-07-23T06:00:31;100709.38;;;18.57;64.25
64343;BME280;50675;53.530;-6.312;2022-07-23T06:02:57;100716.25;;;18.68;64.35
64343;BME280;50675;53.530;-6.312;2022-07-23T06:05:23;100731.69;;;18.77;64.58
64343;BME280;50675;53.530;-6.312;2022-07-23T06:07:52;100707.97;;;18.73;64.49
64343;BME280;50675;53.530;-6.312;2022-07-23T06:10:18;100711.13;;;18.80;64.60
64343;BME280;50675;53.530;-6.312;2022-07-23T06:12:45;100706.69;;;18.84;64.59
64343;BME280;50675;53.530;-6.312;2022-07-23T06:15:10;100705.25;;;18.87;64.66
64343;BME280;50675;53.530;-6.312;2022-07-23T06:17:37;100717.75;;;18.93;64.49
64343;BME280;50675;53.530;-6.312;2022-07-23T06:20:07;100707.13;;;18.91;64.51
64343;BME280;50675;53.530;-6.312;2022-07-23T06:22:35;100717.03;;;19.01;64.72
64343;BME280;50675;53.530;-6.312;2022-07-23T06:25:01;100713.72;;;19.04;64.52
64343;BME280;50675;53.530;-6.312;2022-07-23T06:27:37;100698.00;;;18.96;64.63
64343;BME280;50675;53.530;-6.312;2022-07-23T06:30:12;100713.81;;;19.12;65.03
64343;BME280;50675;53.530;-6.312;2022-07-23T06:32:38;100697.09;;;19.00;65.05
64343;BME280;50675;53.530;-6.312;2022-07-23T06:35:05;100703.56;;;19.04;64.96
64343;BME280;50675;53.530;-6.312;2022-07-23T06:37:30;100711.97;;;19.08;64.84
64343;BME280;50675;53.530;-6.312;2022-07-23T06:39:56;100694.53;;;19.04;65.11
64343;BME280;50675;53.530;-6.312;2022-07-23T06:42:22;100717.06;;;19.14;65.13
64343;BME280;50675;53.530;-6.312;2022-07-23T06:44:48;100703.88;;;19.03;64.93
64343;BME280;50675;53.530;-6.312;2022-07-23T06:47:14;100702.13;;;19.07;65.28
64343;BME280;50675;53.530;-6.312;2022-07-23T06:49:40;100701.84;;;19.08;65.12
64343;BME280;50675;53.530;-6.312;2022-07-23T06:52:07;100703.47;;;19.09;65.13
64343;BME280;50675;53.530;-6.312;2022-07-23T06:54:33;100688.16;;;19.08;65.43
64343;BME280;50675;53.530;-6.312;2022-07-23T06:56:59;100684.91;;;19.06;65.33
64343;BME280;50675;53.530;-6.312;2022-07-23T06:59:30;100704.88;;;19.20;65.67
64343;BME280;50675;53.530;-6.312;2022-07-23T07:02:03;100678.22;;;19.12;65.38
64343;BME280;50675;53.530;-6.312;2022-07-23T07:04:29;100686.22;;;19.22;65.48
64343;BME280;50675;53.530;-6.312;2022-07-23T07:06:54;100691.50;;;19.33;65.44
64343;BME280;50675;53.530;-6.312;2022-07-23T07:09:20;100693.00;;;19.39;65.40
64343;BME280;50675;53.530;-6.312;2022-07-23T07:11:57;100686.22;;;19.36;65.57
64343;BME280;50675;53.530;-6.312;2022-07-23T07:14:27;100678.09;;;19.31;65.56
64343;BME280;50675;53.530;-6.312;2022-07-23T07:16:53;100670.00;;;19.26;65.62
64343;BME280;50675;53.530;-6.312;2022-07-23T07:19:18;100674.56;;;19.31;65.92
64343;BME280;50675;53.530;-6.312;2022-07-23T07:21:47;100675.66;;;19.30;65.74
64343;BME280;50675;53.530;-6.312;2022-07-23T07:24:13;100680.75;;;19.36;65.88
64343;BME280;50675;53.530;-6.312;2022-07-23T07:26:42;100666.97;;;19.28;65.88
64343;BME280;50675;53.530;-6.312;2022-07-23T07:29:07;100681.03;;;19.35;66.13
64343;BME280;50675;53.530;-6.312;2022-07-23T07:31:33;100670.41;;;19.33;65.74
64343;BME280;50675;53.530;-6.312;2022-07-23T07:33:59;100654.19;;;19.23;65.73
64343;BME280;50675;53.530;-6.312;2022-07-23T07:36:25;100669.41;;;19.29;66.05
64343;BME280;50675;53.530;-6.312;2022-07-23T07:38:51;100669.69;;;19.28;65.88
64343;BME280;50675;53.530;-6.312;2022-07-23T07:41:21;100654.47;;;19.21;66.08
64343;BME280;50675;53.530;-6.312;2022-07-23T07:43:51;100649.72;;;19.27;65.86
64343;BME280;50675;53.530;-6.312;2022-07-23T07:46:17;100649.72;;;19.27;66.21
64343;BME280;50675;53.530;-6.312;2022-07-23T07:48:43;100640.50;;;19.23;66.41
64343;BME280;50675;53.530;-6.312;2022-07-23T07:51:09;100644.03;;;19.23;66.55
64343;BME280;50675;53.530;-6.312;2022-07-23T07:53:38;100624.66;;;19.20;66.32
64343;BME280;50675;53.530;-6.312;2022-07-23T07:56:04;100642.31;;;19.28;66.38
64343;BME280;50675;53.530;-6.312;2022-07-23T07:58:44;100639.75;;;19.31;66.42
64343;BME280;50675;53.530;-6.312;2022-07-23T09:47:48;100537.47;;;20.25;67.18
64343;BME280;50675;53.530;-6.312;2022-07-23T09:50:44;100536.69;;;20.24;67.25
64343;BME280;50675;53.530;-6.312;2022-07-23T09:53:25;100528.28;;;20.29;67.36
64343;BME280;50675;53.530;-6.312;2022-07-23T09:55:53;100526.63;;;20.20;67.32
64343;BME280;50675;53.530;-6.312;2022-07-23T09:58:22;100520.28;;;20.33;67.36
64343;BME280;50675;53.530;-6.312;2022-07-23T10:00:48;100523.63;;;20.30;67.28
64343;BME280;50675;53.530;-6.312;2022-07-23T10:03:17;100520.59;;;20.31;67.69
64343;BME280;50675;53.530;-6.312;2022-07-23T10:05:43;100518.72;;;20.40;67.53
64343;BME280;50675;53.530;-6.312;2022-07-23T10:08:11;100516.78;;;20.41;67.71
64343;BME280;50675;53.530;-6.312;2022-07-23T10:10:40;100505.94;;;20.36;67.42
64343;BME280;50675;53.530;-6.312;2022-07-23T10:13:06;100511.28;;;20.41;67.73
64343;BME280;50675;53.530;-6.312;2022-07-23T10:15:35;100514.41;;;20.48;67.71
64343;BME280;50675;53.530;-6.312;2022-07-23T10:18:01;100505.38;;;20.56;67.85
64343;BME280;50675;53.530;-6.312;2022-07-23T10:20:26;100501.38;;;20.62;67.51
64343;BME280;50675;53.530;-6.312;2022-07-23T10:23:05;100501.19;;;20.67;67.91
64343;BME280;50675;53.530;-6.312;2022-07-23T10:25:46;100507.03;;;20.83;67.90
64343;BME280;50675;53.530;-6.312;2022-07-23T10:28:41;100501.56;;;20.91;67.87
64343;BME280;50675;53.530;-6.312;2022-07-23T10:34:07;100485.94;;;21.09;67.82
64343;BME280;50675;53.530;-6.312;2022-07-23T10:36:47;100489.84;;;21.17;67.92
64343;BME280;50675;53.530;-6.312;2022-07-23T10:39:19;100483.69;;;21.20;68.03
64343;BME280;50675;53.530;-6.312;2022-07-23T10:41:46;100475.44;;;21.20;68.13
64343;BME280;50675;53.530;-6.312;2022-07-23T10:44:14;100479.00;;;21.20;67.97
64343;BME280;50675;53.530;-6.312;2022-07-23T10:47:01;100474.00;;;21.31;67.89
64343;BME280;50675;53.530;-6.312;2022-07-23T10:49:46;100475.31;;;21.33;68.21
64343;BME280;50675;53.530;-6.312;2022-07-23T11:06:18;100460.75;;;21.24;68.00
64343;BME280;50675;53.530;-6.312;2022-07-23T11:08:44;100460.44;;;21.26;67.93
64343;BME280;50675;53.530;-6.312;2022-07-23T11:11:10;100440.38;;;21.25;67.72
64343;BME280;50675;53.530;-6.312;2022-07-23T11:13:39;100451.53;;;21.29;67.95
64343;BME280;50675;53.530;-6.312;2022-07-23T11:19:17;100449.56;;;21.55;67.83
64343;BME280;50675;53.530;-6.312;2022-07-23T11:21:52;100424.19;;;21.50;68.00
64343;BME280;50675;53.530;-6.312;2022-07-23T11:24:27;100434.81;;;21.68;68.19
64343;BME280;50675;53.530;-6.312;2022-07-23T11:27:01;100420.09;;;21.73;68.22
64343;BME280;50675;53.530;-6.312;2022-07-23T11:32:02;100432.09;;;22.15;68.12
64343;BME280;50675;53.530;-6.312;2022-07-23T11:34:33;100403.31;;;22.12;68.09
64343;BME280;50675;53.530;-6.312;2022-07-23T11:37:35;100425.78;;;22.44;68.10
64343;BME280;50675;53.530;-6.312;2022-07-23T11:40:08;100415.50;;;22.61;68.21
64343;BME280;50675;53.530;-6.312;2022-07-23T11:42:51;100404.44;;;22.70;68.41
64343;BME280;50675;53.530;-6.312;2022-07-23T11:45:21;100403.50;;;22.87;67.79
64343;BME280;50675;53.530;-6.312;2022-07-23T11:47:49;100416.34;;;23.03;67.95
64343;BME280;50675;53.530;-6.312;2022-07-23T11:50:18;100419.69;;;23.09;68.38
64343;BME280;50675;53.530;-6.312;2022-07-23T11:52:46;100426.31;;;23.29;67.93
64343;BME280;50675;53.530;-6.312;2022-07-23T11:55:12;100422.06;;;23.31;68.07
64343;BME280;50675;53.530;-6.312;2022-07-23T11:57:40;100416.59;;;23.43;67.81
64343;BME280;50675;53.530;-6.312;2022-07-23T12:00:15;100420.56;;;23.54;67.69
64343;BME280;50675;53.530;-6.312;2022-07-23T12:02:50;100413.34;;;23.62;67.60
64343;BME280;50675;53.530;-6.312;2022-07-23T12:05:25;100403.28;;;23.78;67.93
64343;BME280;50675;53.530;-6.312;2022-07-23T12:07:52;100405.00;;;23.83;67.78
64343;BME280;50675;53.530;-6.312;2022-07-23T12:10:20;100404.31;;;23.86;67.43
64343;BME280;50675;53.530;-6.312;2022-07-23T12:12:52;100416.03;;;23.83;67.51
64343;BME280;50675;53.530;-6.312;2022-07-23T12:15:21;100409.50;;;23.75;67.42
64343;BME280;50675;53.530;-6.312;2022-07-23T12:17:49;100413.28;;;23.71;67.15
64343;BME280;50675;53.530;-6.312;2022-07-23T12:20:17;100413.22;;;23.59;67.05
64343;BME280;50675;53.530;-6.312;2022-07-23T12:22:45;100423.88;;;23.48;66.79
64343;BME280;50675;53.530;-6.312;2022-07-23T12:25:22;100416.97;;;23.42;66.86
64343;BME280;50675;53.530;-6.312;2022-07-23T12:28:19;100420.47;;;23.30;66.77
64343;BME280;50675;53.530;-6.312;2022-07-23T12:30:48;100419.75;;;23.21;66.43
64343;BME280;50675;53.530;-6.312;2022-07-23T12:33:28;100413.19;;;23.14;66.41
64343;BME280;50675;53.530;-6.312;2022-07-23T12:35:56;100415.97;;;23.05;66.47
64343;BME280;50675;53.530;-6.312;2022-07-23T12:38:23;100406.78;;;23.01;66.42
64343;BME280;50675;53.530;-6.312;2022-07-23T12:40:59;100420.03;;;23.07;66.32
64343;BME280;50675;53.530;-6.312;2022-07-23T12:45:52;100401.66;;;23.32;66.55
64343;BME280;50675;53.530;-6.312;2022-07-23T12:48:32;100402.63;;;23.48;66.61
64343;BME280;50675;53.530;-6.312;2022-07-23T12:51:00;100387.88;;;23.65;66.42
64343;BME280;50675;53.530;-6.312;2022-07-23T12:53:44;100402.03;;;23.76;66.40
64343;BME280;50675;53.530;-6.312;2022-07-23T12:56:12;100388.47;;;23.95;66.05
64343;BME280;50675;53.530;-6.312;2022-07-23T12:58:52;100391.94;;;24.16;66.33
64343;BME280;50675;53.530;-6.312;2022-07-23T13:04:21;100389.03;;;24.49;66.09
64343;BME280;50675;53.530;-6.312;2022-07-23T13:06:50;100389.16;;;24.53;66.19
64343;BME280;50675;53.530;-6.312;2022-07-23T13:09:22;100378.34;;;24.60;66.22
64343;BME280;50675;53.530;-6.312;2022-07-23T13:11:49;100370.25;;;24.67;66.04
64343;BME280;50675;53.530;-6.312;2022-07-23T13:14:17;100365.03;;;24.77;65.72
64343;BME280;50675;53.530;-6.312;2022-07-23T13:16:45;100356.97;;;24.84;65.62
64343;BME280;50675;53.530;-6.312;2022-07-23T13:19:12;100351.41;;;24.97;65.86
64343;BME280;50675;53.530;-6.312;2022-07-23T13:21:39;100345.38;;;25.07;65.20
64343;BME280;50675;53.530;-6.312;2022-07-23T13:24:09;100333.03;;;25.16;65.41
64343;BME280;50675;53.530;-6.312;2022-07-23T13:26:46;100329.38;;;25.28;65.22
64343;BME280;50675;53.530;-6.312;2022-07-23T13:29:12;100325.75;;;25.40;64.99
64343;BME280;50675;53.530;-6.312;2022-07-23T13:31:40;100325.00;;;25.43;64.99
64343;BME280;50675;53.530;-6.312;2022-07-23T13:34:06;100332.78;;;25.53;65.14
64343;BME280;50675;53.530;-6.312;2022-07-23T13:36:32;100331.31;;;25.55;64.62
64343;BME280;50675;53.530;-6.312;2022-07-23T13:38:58;100332.22;;;25.59;64.90
64343;BME280;50675;53.530;-6.312;2022-07-23T13:41:23;100332.22;;;25.59;64.71
64343;BME280;50675;53.530;-6.312;2022-07-23T13:43:49;100340.16;;;25.61;64.52
64343;BME280;50675;53.530;-6.312;2022-07-23T13:46:15;100335.88;;;25.63;63.99
64343;BME280;50675;53.530;-6.312;2022-07-23T13:48:41;100335.25;;;25.70;64.20
64343;BME280;50675;53.530;-6.312;2022-07-23T13:51:07;100331.59;;;25.66;63.70
64343;BME280;50675;53.530;-6.312;2022-07-23T13:53:33;100320.41;;;25.62;63.64
64343;BME280;50675;53.530;-6.312;2022-07-23T13:55:59;100320.06;;;25.64;63.65
64343;BME280;50675;53.530;-6.312;2022-07-23T13:58:24;100320.06;;;25.64;63.56
64343;BME280;50675;53.530;-6.312;2022-07-23T14:00:52;100343.16;;;25.72;62.99
64343;BME280;50675;53.530;-6.312;2022-07-23T14:03:22;100344.25;;;25.67;63.22
64343;BME280;50675;53.530;-6.312;2022-07-23T14:05:50;100333.63;;;25.69;62.83
64343;BME280;50675;53.530;-6.312;2022-07-23T14:08:19;100318.53;;;25.66;62.58
64343;BME280;50675;53.530;-6.312;2022-07-23T14:10:45;100318.47;;;25.63;63.00
64343;BME280;50675;53.530;-6.312;2022-07-23T14:13:10;100318.72;;;25.58;62.46
64343;BME280;50675;53.530;-6.312;2022-07-23T14:15:39;100310.88;;;25.60;62.22
64343;BME280;50675;53.530;-6.312;2022-07-23T14:18:06;100302.84;;;25.71;62.08
64343;BME280;50675;53.530;-6.312;2022-07-23T14:20:31;100303.47;;;25.80;62.47
64343;BME280;50675;53.530;-6.312;2022-07-23T14:22:57;100293.22;;;25.80;62.22
64343;BME280;50675;53.530;-6.312;2022-07-23T14:25:26;100300.31;;;25.81;62.19
64343;BME280;50675;53.530;-6.312;2022-07-23T14:27:52;100302.66;;;25.79;62.37
64343;BME280;50675;53.530;-6.312;2022-07-23T14:30:18;100305.44;;;25.79;61.94
64343;BME280;50675;53.530;-6.312;2022-07-23T14:32:44;100302.22;;;25.77;61.96
64343;BME280;50675;53.530;-6.312;2022-07-23T14:35:09;100298.63;;;25.77;61.92
64343;BME280;50675;53.530;-6.312;2022-07-23T14:37:35;100301.66;;;25.72;61.47
64343;BME280;50675;53.530;-6.312;2022-07-23T14:40:01;100288.56;;;25.68;61.45
64343;BME280;50675;53.530;-6.312;2022-07-23T14:42:26;100272.25;;;25.63;61.32
64343;BME280;50675;53.530;-6.312;2022-07-23T14:44:52;100272.25;;;25.63;61.42
64343;BME280;50675;53.530;-6.312;2022-07-23T14:47:18;100265.91;;;25.63;61.14
64343;BME280;50675;53.530;-6.312;2022-07-23T14:49:44;100265.81;;;25.59;61.34
64343;BME280;50675;53.530;-6.312;2022-07-23T14:52:09;100253.22;;;25.62;61.44
64343;BME280;50675;53.530;-6.312;2022-07-23T14:54:35;100244.75;;;25.71;61.32
64343;BME280;50675;53.530;-6.312;2022-07-23T14:57:01;100253.56;;;25.76;61.20
64343;BME280;50675;53.530;-6.312;2022-07-23T14:59:29;100254.03;;;25.78;61.36
64343;BME280;50675;53.530;-6.312;2022-07-23T15:01:57;100262.47;;;25.85;60.63
64343;BME280;50675;53.530;-6.312;2022-07-23T15:04:23;100272.03;;;25.88;60.61
64343;BME280;50675;53.530;-6.312;2022-07-23T15:06:49;100268.00;;;25.85;60.77
64343;BME280;50675;53.530;-6.312;2022-07-23T15:09:15;100272.03;;;25.88;60.68
64343;BME280;50675;53.530;-6.312;2022-07-23T15:11:43;100271.97;;;25.84;60.17
64343;BME280;50675;53.530;-6.312;2022-07-23T15:14:09;100259.28;;;25.83;60.46
64343;BME280;50675;53.530;-6.312;2022-07-23T15:16:35;100259.28;;;25.83;60.58
64343;BME280;50675;53.530;-6.312;2022-07-23T15:19:02;100244.63;;;25.83;60.08
64343;BME280;50675;53.530;-6.312;2022-07-23T15:21:28;100242.22;;;25.81;60.04
64343;BME280;50675;53.530;-6.312;2022-07-23T15:23:57;100240.63;;;25.80;60.35
64343;BME280;50675;53.530;-6.312;2022-07-23T15:26:28;100231.88;;;25.78;60.23
64343;BME280;50675;53.530;-6.312;2022-07-23T15:28:54;100221.28;;;25.80;60.24
64343;BME280;50675;53.530;-6.312;2022-07-23T15:31:20;100223.59;;;25.78;60.06
64343;BME280;50675;53.530;-6.312;2022-07-23T15:33:46;100222.94;;;25.85;60.23
64343;BME280;50675;53.530;-6.312;2022-07-23T15:36:12;100221.41;;;25.87;59.94
64343;BME280;50675;53.530;-6.312;2022-07-23T15:38:37;100220.69;;;25.90;60.17
64343;BME280;50675;53.530;-6.312;2022-07-23T15:41:03;100221.88;;;25.89;60.00
64343;BME280;50675;53.530;-6.312;2022-07-23T15:43:29;100218.38;;;25.92;59.70
64343;BME280;50675;53.530;-6.312;2022-07-23T15:45:54;100220.41;;;25.95;59.52
64343;BME280;50675;53.530;-6.312;2022-07-23T15:48:21;100213.88;;;26.03;59.44
64343;BME280;50675;53.530;-6.312;2022-07-23T15:50:47;100217.72;;;25.99;59.43